Time;durP1;ratioP1;P1;durP2;ratioP2;P2;SDS_P1;SDS_P2;PMS_P1;PMS_P2;Temp;Humidity;BMP_temperature;BMP_pressure;BME280_temperature;BME280_humidity;BME280_pressure;Samples;Min_cycle;Max_cycle;Signal;HPM_P1;HPM_P2
2024/01/03 00:01:34;;;;;;;21.48;4.35;;;;;;;;;;4919607;29;20055;-81
2024/01/03 00:04:04;;;;;;;;;;;;;;;;;;4935371;29;20051;-81
2024/01/03 00:06:34;;;;;;;6.45;2.20;;;;;;;;;;4934748;29;19987;-81
2024/01/03 00:09:06;;;;;;;4.65;2.05;;;;;;;;;;4918788;29;20102;-81
2024/01/03 00:11:37;;;;;;;7.03;2.00;;;;;;;;;;4934681;29;20052;-82
2024/01/03 00:14:16;;;;;;;3.90;1.85;;;;;;;;;;4934031;29;20364;-81
2024/01/03 00:16:47;;;;;;;13.07;5.82;;;;;;;;;;4918050;29;20483;-83
2024/01/03 00:19:23;;;;;;;5.57;2.55;;;;;;;;;;4934773;29;20047;-83
2024/01/03 00:21:54;;;;;;;20.55;10.02;;;;;;;;;;4916328;29;20047;-84
2024/01/03 00:24:29;;;;;;;15.98;6.85;;;;;;;;;;4913618;29;20503;-84
2024/01/03 00:26:59;;;;;;;12.60;4.72;;;;;;;;;;4934609;29;20036;-81
2024/01/03 00:29:47;;;;;;;11.23;4.90;;;;;;;;;;4934261;29;20024;-81
2024/01/03 00:32:18;;;;;;;22.90;11.10;;;;;;;;;;4933878;29;20066;-82
2024/01/03 00:34:53;;;;;;;13.82;5.70;;;;;;;;;;4917087;29;20595;-82
2024/01/03 00:37:29;;;;;;;8.32;3.15;;;;;;;;;;4934209;29;20052;-81
2024/01/03 00:40:03;;;;;;;6.88;3.20;;;;;;;;;;4936701;29;20487;-82
2024/01/03 00:42:34;;;;;;;5.43;2.75;;;;;;;;;;4914680;29;20402;-82
2024/01/03 00:45:05;;;;;;;6.47;2.40;;;;;;;;;;4915593;29;20410;-82
2024/01/03 00:47:35;;;;;;;8.38;2.00;;;;;;;;;;4921460;29;20047;-83
2024/01/03 00:50:06;;;;;;;5.20;1.80;;;;;;;;;;4920282;29;20043;-82
2024/01/03 00:52:37;;;;;;;;;;;;;;;;;;4938245;29;20047;-80
2024/01/03 00:55:09;;;;;;;16.80;2.13;;;;;;;;;;4921193;29;19925;-82
2024/01/03 00:57:39;;;;;;;;;;;;;;;;;;4935773;29;20040;-81
2024/01/03 01:00:10;;;;;;;7.93;2.38;;;;;;;;;;4938809;29;19926;-81
2024/01/03 01:02:41;;;;;;;4.72;1.80;;;;;;;;;;4937594;29;20046;-81
2024/01/03 01:05:11;;;;;;;9.15;5.10;;;;;;;;;;4921484;29;20051;-80
2024/01/03 01:07:41;;;;;;;5.45;2.80;;;;;;;;;;4936399;29;20051;-80
2024/01/03 01:10:11;;;;;;;8.63;3.13;;;;;;;;;;4921436;29;20399;-81
2024/01/03 01:12:41;;;;;;;8.75;2.20;;;;;;;;;;4921616;29;20047;-81
2024/01/03 01:15:11;;;;;;;5.72;2.28;;;;;;;;;;4921940;29;20055;-80
2024/01/03 01:17:42;;;;;;;5.35;1.85;;;;;;;;;;4916923;29;20407;-81
2024/01/03 01:20:12;;;;;;;8.88;2.25;;;;;;;;;;4919571;29;20047;-81
2024/01/03 01:22:43;;;;;;;6.22;2.53;;;;;;;;;;4919665;29;20114;-81
2024/01/03 01:25:17;;;;;;;6.07;2.33;;;;;;;;;;4918969;29;20445;-80
2024/01/03 01:27:47;;;;;;;;;;;;;;;;;;4919895;29;20062;-81
2024/01/03 01:30:17;;;;;;;6.07;2.10;;;;;;;;;;4919088;29;20274;-81
2024/01/03 01:32:50;;;;;;;8.32;2.83;;;;;;;;;;4917424;29;20060;-80
2024/01/03 01:35:20;;;;;;;7.32;2.40;;;;;;;;;;4901744;29;20048;-80
2024/01/03 01:37:51;;;;;;;12.45;2.70;;;;;;;;;;4886656;29;20047;-80
2024/01/03 01:40:22;;;;;;;10.27;2.90;;;;;;;;;;4919338;29;20047;-81
2024/01/03 01:42:53;;;;;;;10.07;4.82;;;;;;;;;;4903021;29;20047;-81
2024/01/03 01:45:26;;;;;;;13.02;4.95;;;;;;;;;;4919594;29;20044;-81
2024/01/03 01:47:56;;;;;;;12.02;5.13;;;;;;;;;;4918223;29;20036;-80
2024/01/03 01:50:27;;;;;;;8.85;3.78;;;;;;;;;;4901165;29;20044;-80
2024/01/03 01:52:58;;;;;;;9.27;2.50;;;;;;;;;;4901762;29;20468;-80
2024/01/03 01:55:29;;;;;;;9.02;3.25;;;;;;;;;;4917086;29;20048;-80
2024/01/03 01:57:59;;;;;;;10.15;2.58;;;;;;;;;;4917290;29;20055;-81
2024/01/03 02:00:29;;;;;;;9.15;2.20;;;;;;;;;;4901407;29;20388;-80
2024/01/03 02:03:00;;;;;;;14.60;3.92;;;;;;;;;;4918823;29;20483;-80
2024/01/03 02:05:32;;;;;;;6.55;2.45;;;;;;;;;;4917813;29;20051;-80
2024/01/03 02:08:10;;;;;;;11.98;3.78;;;;;;;;;;4932530;29;20051;-80
2024/01/03 02:10:41;;;;;;;5.22;2.13;;;;;;;;;;4919104;29;20040;-80
2024/01/03 02:13:11;;;;;;;21.80;8.48;;;;;;;;;;4901538;29;20051;-80
2024/01/03 02:15:43;;;;;;;15.95;2.70;;;;;;;;;;4917090;29;20059;-80
2024/01/03 02:18:15;;;;;;;19.33;2.60;;;;;;;;;;4888728;29;20070;-79
2024/01/03 02:20:46;;;;;;;16.80;3.30;;;;;;;;;;4925476;29;20376;-80
2024/01/03 02:23:17;;;;;;;7.68;2.35;;;;;;;;;;4925530;29;20044;-80
2024/01/03 02:25:47;;;;;;;10.82;2.15;;;;;;;;;;4926453;29;20051;-80
2024/01/03 02:28:18;;;;;;;11.27;2.65;;;;;;;;;;4916948;29;20384;-80
2024/01/03 02:30:49;;;;;;;4.85;2.30;;;;;;;;;;4901180;29;20047;-80
2024/01/03 02:33:18;;;;;;;12.70;2.38;;;;;;;;;;4900970;29;20051;-80
2024/01/03 02:35:49;;;;;;;9.88;2.67;;;;;;;;;;4918583;29;20052;-80
2024/01/03 02:38:21;;;;;;;21.20;2.65;;;;;;;;;;4932308;29;20048;-80
2024/01/03 02:40:51;;;;;;;15.93;4.30;;;;;;;;;;4918436;29;20040;-80
2024/01/03 02:43:21;;;;;;;21.48;3.70;;;;;;;;;;4917944;29;20043;-80
2024/01/03 02:45:51;;;;;;;8.90;3.08;;;;;;;;;;4918583;29;20463;-80
2024/01/03 02:48:21;;;;;;;15.35;4.95;;;;;;;;;;4901635;29;20048;-79
2024/01/03 02:50:51;;;;;;;6.97;3.03;;;;;;;;;;4918062;29;20044;-79
2024/01/03 02:53:22;;;;;;;11.23;2.50;;;;;;;;;;4916662;29;20055;-80
2024/01/03 02:55:52;;;;;;;7.07;3.08;;;;;;;;;;4918202;29;20048;-80
2024/01/03 02:58:22;;;;;;;9.32;3.15;;;;;;;;;;4917941;29;20044;-80
2024/01/03 03:00:52;;;;;;;11.55;3.28;;;;;;;;;;4917685;29;20491;-79
2024/01/03 03:03:26;;;;;;;9.18;4.30;;;;;;;;;;4917577;29;20481;-79
2024/01/03 03:05:57;;;;;;;11.57;4.10;;;;;;;;;;4917780;29;20348;-79
2024/01/03 03:08:27;;;;;;;13.85;5.50;;;;;;;;;;4900260;29;20055;-78
2024/01/03 03:10:57;;;;;;;16.80;5.63;;;;;;;;;;4918208;29;20051;-79
2024/01/03 03:13:27;;;;;;;16.08;5.28;;;;;;;;;;4917160;29;20044;-79
2024/01/03 03:15:57;;;;;;;13.32;5.05;;;;;;;;;;4917702;29;20047;-79
2024/01/03 03:18:27;;;;;;;12.93;5.47;;;;;;;;;;4917323;29;20467;-79
2024/01/03 03:20:57;;;;;;;10.48;4.85;;;;;;;;;;4917508;29;20059;-78
2024/01/03 03:23:27;;;;;;;11.95;4.65;;;;;;;;;;4916081;29;20059;-80
2024/01/03 03:26:00;;;;;;;12.75;5.50;;;;;;;;;;4917700;29;20052;-79
2024/01/03 03:28:32;;;;;;;15.68;5.35;;;;;;;;;;4917525;29;20048;-80
2024/01/03 03:31:03;;;;;;;12.63;5.20;;;;;;;;;;4885057;29;20510;-79
2024/01/03 03:33:34;;;;;;;14.07;5.13;;;;;;;;;;4916706;29;20143;-78
2024/01/03 03:36:12;;;;;;;13.75;4.88;;;;;;;;;;4898590;29;20491;-79
2024/01/03 03:38:43;;;;;;;8.88;4.82;;;;;;;;;;4897385;29;20067;-79
2024/01/03 03:41:14;;;;;;;12.35;4.60;;;;;;;;;;4898389;29;20040;-79
2024/01/03 03:43:45;;;;;;;13.63;5.53;;;;;;;;;;4896830;29;20392;-79
2024/01/03 03:46:17;;;;;;;11.75;4.50;;;;;;;;;;4898315;29;20076;-79
2024/01/03 03:48:48;;;;;;;11.80;3.92;;;;;;;;;;4898362;29;20044;-79
2024/01/03 03:51:19;;;;;;;10.95;4.57;;;;;;;;;;4898597;29;20041;-79
2024/01/03 03:53:49;;;;;;;9.73;4.47;;;;;;;;;;4898075;29;20044;-79
2024/01/03 03:56:26;;;;;;;17.45;4.43;;;;;;;;;;4927057;29;20060;-79
2024/01/03 03:58:57;;;;;;;12.80;3.75;;;;;;;;;;4898225;29;20064;-79
2024/01/03 04:01:28;;;;;;;13.23;4.00;;;;;;;;;;4898407;29;20044;-79
2024/01/03 04:03:58;;;;;;;8.23;3.92;;;;;;;;;;4898009;29;20044;-79
2024/01/03 04:06:28;;;;;;;11.77;3.83;;;;;;;;;;4898107;29;20068;-79
2024/01/03 04:08:59;;;;;;;12.20;4.40;;;;;;;;;;4898156;29;20040;-79
2024/01/03 04:11:29;;;;;;;12.50;4.18;;;;;;;;;;4897852;29;20036;-79
2024/01/03 04:13:59;;;;;;;11.25;4.35;;;;;;;;;;4899347;29;20041;-79
2024/01/03 04:16:29;;;;;;;14.07;4.40;;;;;;;;;;4902459;29;20424;-78
2024/01/03 04:19:00;;;;;;;11.20;3.72;;;;;;;;;;4901707;29;20047;-79
2024/01/03 04:21:31;;;;;;;9.32;4.03;;;;;;;;;;4902207;29;20052;-79
2024/01/03 04:24:01;;;;;;;10.18;4.22;;;;;;;;;;4901975;29;20056;-79
2024/01/03 04:26:32;;;;;;;11.65;3.58;;;;;;;;;;4901618;29;20135;-79
2024/01/03 04:29:02;;;;;;;10.80;4.00;;;;;;;;;;4901818;29;20064;-79
2024/01/03 04:31:33;;;;;;;11.18;3.72;;;;;;;;;;4901528;29;20072;-79
2024/01/03 04:34:03;;;;;;;9.75;4.38;;;;;;;;;;4905290;29;20415;-79
2024/01/03 04:36:34;;;;;;;7.82;3.58;;;;;;;;;;4920592;29;20071;-79
2024/01/03 04:39:06;;;;;;;12.10;3.92;;;;;;;;;;4918081;29;20375;-79
2024/01/03 04:41:36;;;;;;;14.93;5.15;;;;;;;;;;4918788;29;20044;-78
2024/01/03 04:44:07;;;;;;;13.68;4.68;;;;;;;;;;4920683;29;20055;-79
2024/01/03 04:46:38;;;;;;;11.68;4.55;;;;;;;;;;4920848;29;20048;-80
2024/01/03 04:49:08;;;;;;;10.48;4.53;;;;;;;;;;4920305;29;20036;-78
2024/01/03 04:51:38;;;;;;;17.08;4.90;;;;;;;;;;4920076;29;20043;-78
2024/01/03 04:54:09;;;;;;;10.70;4.40;;;;;;;;;;4920333;29;20044;-79
2024/01/03 04:56:39;;;;;;;12.88;4.63;;;;;;;;;;4920442;29;20052;-78
2024/01/03 04:59:10;;;;;;;13.02;4.88;;;;;;;;;;4934702;29;20044;-80
2024/01/03 05:01:42;;;;;;;10.35;4.55;;;;;;;;;;4917929;29;20472;-79
2024/01/03 05:04:12;;;;;;;11.55;4.25;;;;;;;;;;4918717;29;20058;-78
2024/01/03 05:06:43;;;;;;;15.57;5.63;;;;;;;;;;4919845;29;20048;-79
2024/01/03 05:09:14;;;;;;;10.25;4.55;;;;;;;;;;4919994;29;20483;-80
2024/01/03 05:11:44;;;;;;;14.02;4.90;;;;;;;;;;4919385;29;20498;-78
2024/01/03 05:14:13;;;;;;;15.75;5.05;;;;;;;;;;4919536;29;20037;-79
2024/01/03 05:16:43;;;;;;;9.90;5.00;;;;;;;;;;4919994;29;20040;-79
2024/01/03 05:19:14;;;;;;;17.15;5.40;;;;;;;;;;4919970;29;20044;-79
2024/01/03 05:21:46;;;;;;;12.65;5.28;;;;;;;;;;4919422;29;20040;-78
2024/01/03 05:24:16;;;;;;;18.58;5.50;;;;;;;;;;4918424;29;20040;-78
2024/01/03 05:26:47;;;;;;;;;;;;;;;;;;4920063;29;20063;-78
2024/01/03 05:29:17;;;;;;;16.92;5.07;;;;;;;;;;4919776;29;20355;-79
2024/01/03 05:31:48;;;;;;;17.33;5.15;;;;;;;;;;4917844;29;20487;-78
2024/01/03 05:34:20;;;;;;;14.75;4.95;;;;;;;;;;4919262;29;20475;-78
2024/01/03 05:37:06;;;;;;;11.90;4.57;;;;;;;;;;4918778;29;20061;-78
2024/01/03 05:39:37;;;;;;;12.05;5.20;;;;;;;;;;4917775;29;20048;-78
2024/01/03 05:42:08;;;;;;;11.27;4.65;;;;;;;;;;4919764;29;20055;-78
2024/01/03 05:44:39;;;;;;;12.88;4.93;;;;;;;;;;4919244;29;20055;-79
2024/01/03 05:47:09;;;;;;;13.35;4.93;;;;;;;;;;4919019;29;20052;-79
2024/01/03 05:49:39;;;;;;;19.48;4.95;;;;;;;;;;4919069;29;20383;-78
2024/01/03 05:52:10;;;;;;;19.45;5.97;;;;;;;;;;4901488;29;20059;-78
2024/01/03 05:54:40;;;;;;;14.05;5.40;;;;;;;;;;4919403;29;20428;-78
2024/01/03 05:57:10;;;;;;;11.40;5.13;;;;;;;;;;4919250;29;20044;-78
2024/01/03 05:59:40;;;;;;;12.80;4.93;;;;;;;;;;4918805;29;20049;-78
2024/01/03 06:02:10;;;;;;;13.80;5.40;;;;;;;;;;4918725;29;20044;-79
2024/01/03 06:04:41;;;;;;;12.57;5.00;;;;;;;;;;4901034;29;20495;-79
2024/01/03 06:07:11;;;;;;;12.68;6.28;;;;;;;;;;4918798;29;20040;-79
2024/01/03 06:09:41;;;;;;;11.68;5.05;;;;;;;;;;4917266;29;20056;-78
2024/01/03 06:12:10;;;;;;;10.90;4.68;;;;;;;;;;4917377;29;20043;-78
2024/01/03 06:14:43;;;;;;;11.48;4.80;;;;;;;;;;4918459;29;20040;-79
2024/01/03 06:17:13;;;;;;;13.20;4.60;;;;;;;;;;4918477;29;20052;-78
2024/01/03 06:19:44;;;;;;;15.85;4.78;;;;;;;;;;4918768;29;20044;-78
2024/01/03 06:22:15;;;;;;;12.55;5.78;;;;;;;;;;4918885;29;20052;-78
2024/01/03 06:24:46;;;;;;;14.45;6.57;;;;;;;;;;4918409;29;20407;-78
2024/01/03 06:27:17;;;;;;;17.25;5.75;;;;;;;;;;4917578;29;20383;-79
2024/01/03 06:29:47;;;;;;;17.63;5.88;;;;;;;;;;4917273;29;20044;-78
2024/01/03 06:32:18;;;;;;;14.85;5.60;;;;;;;;;;4900748;29;20044;-79
2024/01/03 06:34:48;;;;;;;11.90;5.53;;;;;;;;;;4917941;29;20056;-78
2024/01/03 06:37:18;;;;;;;14.45;6.32;;;;;;;;;;4917636;29;20496;-79
2024/01/03 06:39:48;;;;;;;11.20;5.88;;;;;;;;;;4916414;29;20047;-80
2024/01/03 06:42:18;;;;;;;12.77;6.32;;;;;;;;;;4917942;29;20048;-79
2024/01/03 06:44:48;;;;;;;14.43;5.63;;;;;;;;;;4900825;29;20048;-79
2024/01/03 06:47:18;;;;;;;15.95;7.05;;;;;;;;;;4916008;29;20491;-79
2024/01/03 06:49:49;;;;;;;19.88;7.97;;;;;;;;;;4915959;29;20051;-80
2024/01/03 06:52:20;;;;;;;17.70;6.40;;;;;;;;;;4917962;29;20048;-80
2024/01/03 06:54:50;;;;;;;13.23;4.97;;;;;;;;;;4918083;29;20048;-80
2024/01/03 06:57:20;;;;;;;11.23;6.10;;;;;;;;;;4914992;29;20032;-79
2024/01/03 06:59:51;;;;;;;12.32;5.40;;;;;;;;;;4935010;29;20043;-79
2024/01/03 07:02:23;;;;;;;11.98;6.28;;;;;;;;;;4934723;29;20062;-79
2024/01/03 07:04:53;;;;;;;13.30;5.40;;;;;;;;;;4936529;29;20047;-79
2024/01/03 07:07:23;;;;;;;11.93;5.10;;;;;;;;;;4936612;29;20044;-80
2024/01/03 07:09:52;;;;;;;11.82;4.85;;;;;;;;;;4918450;29;20055;-78
2024/01/03 07:12:23;;;;;;;11.93;4.65;;;;;;;;;;4934887;29;20058;-78
2024/01/03 07:14:53;;;;;;;11.55;4.68;;;;;;;;;;4914593;29;20047;-78
2024/01/03 07:17:24;;;;;;;18.65;6.22;;;;;;;;;;4933316;29;20048;-81
2024/01/03 07:19:55;;;;;;;19.67;7.25;;;;;;;;;;4918209;29;20036;-79
2024/01/03 07:22:25;;;;;;;9.88;4.85;;;;;;;;;;4934455;29;20055;-80
2024/01/03 07:24:54;;;;;;;10.15;4.72;;;;;;;;;;4934789;29;20048;-80
2024/01/03 07:27:24;;;;;;;11.75;4.45;;;;;;;;;;4919004;29;20048;-79
2024/01/03 07:29:56;;;;;;;10.65;4.60;;;;;;;;;;4935558;29;20127;-80
2024/01/03 07:32:27;;;;;;;10.68;3.92;;;;;;;;;;4934336;29;20032;-80
2024/01/03 07:34:57;;;;;;;9.10;4.10;;;;;;;;;;4934044;29;20561;-80
2024/01/03 07:37:27;;;;;;;9.32;3.33;;;;;;;;;;4934421;29;20051;-80
2024/01/03 07:39:57;;;;;;;9.07;4.03;;;;;;;;;;4916973;29;20498;-80
2024/01/03 07:42:27;;;;;;;24.08;5.30;;;;;;;;;;4934141;29;20043;-79
2024/01/03 07:44:57;;;;;;;8.23;4.47;;;;;;;;;;4916874;29;20070;-80
2024/01/03 07:47:28;;;;;;;8.75;4.35;;;;;;;;;;4934437;29;20506;-80
2024/01/03 07:50:02;;;;;;;8.88;3.88;;;;;;;;;;4935159;29;20051;-79
2024/01/03 07:52:32;;;;;;;9.93;4.03;;;;;;;;;;4933404;29;20500;-80
2024/01/03 07:55:03;;;;;;;11.52;3.72;;;;;;;;;;4936331;29;20047;-79
2024/01/03 07:57:34;;;;;;;10.60;3.38;;;;;;;;;;4935971;29;20047;-79
2024/01/03 08:00:08;;;;;;;10.88;3.50;;;;;;;;;;4934672;29;20048;-80
2024/01/03 08:02:38;;;;;;;9.63;4.35;;;;;;;;;;4936189;29;20360;-80
2024/01/03 08:05:09;;;;;;;9.25;3.92;;;;;;;;;;4936060;29;20466;-80
2024/01/03 08:07:40;;;;;;;6.85;3.75;;;;;;;;;;4934642;29;20043;-80
2024/01/03 08:10:11;;;;;;;10.70;4.03;;;;;;;;;;4936056;29;20470;-79
2024/01/03 08:12:41;;;;;;;12.55;4.20;;;;;;;;;;4935967;29;20047;-80
2024/01/03 08:15:12;;;;;;;12.85;4.05;;;;;;;;;;4935707;29;20047;-80
2024/01/03 08:17:43;;;;;;;8.80;4.70;;;;;;;;;;4935940;29;20355;-80
2024/01/03 08:20:13;;;;;;;11.35;4.60;;;;;;;;;;4935649;29;20043;-81
2024/01/03 08:22:43;;;;;;;9.02;4.57;;;;;;;;;;4936556;29;20382;-81
2024/01/03 08:25:15;;;;;;;11.77;3.80;;;;;;;;;;4935919;29;20050;-81
2024/01/03 08:27:46;;;;;;;9.52;3.80;;;;;;;;;;4937204;29;20046;-81
2024/01/03 08:30:17;;;;;;;8.13;3.70;;;;;;;;;;4935995;29;20044;-80
2024/01/03 08:32:47;;;;;;;12.32;4.07;;;;;;;;;;4915762;29;20055;-80
2024/01/03 08:35:19;;;;;;;10.20;3.85;;;;;;;;;;4916470;29;20410;-80
2024/01/03 08:37:48;;;;;;;11.50;4.25;;;;;;;;;;4900048;29;20048;-80
2024/01/03 08:40:20;;;;;;;9.32;3.60;;;;;;;;;;4916614;29;20043;-80
2024/01/03 08:42:51;;;;;;;10.68;3.58;;;;;;;;;;4916130;29;20048;-80
2024/01/03 08:45:22;;;;;;;11.57;3.58;;;;;;;;;;4916808;29;20055;-79
2024/01/03 08:47:52;;;;;;;10.05;3.42;;;;;;;;;;4936458;29;20043;-80
2024/01/03 08:50:23;;;;;;;10.27;3.50;;;;;;;;;;4911277;29;20051;-80
2024/01/03 08:52:55;;;;;;;9.60;2.55;;;;;;;;;;4925925;29;20051;-80
2024/01/03 08:55:26;;;;;;;8.02;2.25;;;;;;;;;;4929344;29;20067;-79
2024/01/03 08:57:58;;;;;;;13.20;2.35;;;;;;;;;;4920378;29;20052;-79
2024/01/03 09:00:28;;;;;;;9.93;3.50;;;;;;;;;;4923894;29;20154;-79
2024/01/03 09:03:00;;;;;;;10.23;3.83;;;;;;;;;;4939238;29;20047;-80
2024/01/03 09:05:32;;;;;;;9.63;3.70;;;;;;;;;;4938580;29;20039;-80
2024/01/03 09:08:02;;;;;;;13.65;4.45;;;;;;;;;;4938827;29;20035;-79
2024/01/03 09:10:35;;;;;;;9.98;4.40;;;;;;;;;;4938754;29;20047;-80
2024/01/03 09:13:05;;;;;;;21.63;4.05;;;;;;;;;;4921353;29;20344;-80
2024/01/03 09:15:35;;;;;;;13.20;3.70;;;;;;;;;;4938839;29;20039;-80
2024/01/03 09:18:06;;;;;;;16.08;3.83;;;;;;;;;;4938934;29;20051;-80
2024/01/03 09:20:36;;;;;;;8.98;3.42;;;;;;;;;;4938842;29;20036;-79
2024/01/03 09:23:06;;;;;;;27.70;3.92;;;;;;;;;;4922257;29;20047;-79
2024/01/03 09:25:36;;;;;;;11.48;3.10;;;;;;;;;;4938871;29;20051;-80
2024/01/03 09:28:10;;;;;;;7.25;3.03;;;;;;;;;;4938646;29;20055;-80
2024/01/03 09:30:40;;;;;;;10.57;3.50;;;;;;;;;;4921838;29;20039;-80
2024/01/03 09:33:12;;;;;;;29.23;3.75;;;;;;;;;;4938669;29;20040;-80
2024/01/03 09:35:44;;;;;;;16.05;3.05;;;;;;;;;;4937945;29;20475;-80
2024/01/03 09:38:16;;;;;;;13.77;3.13;;;;;;;;;;4938803;29;20340;-80
2024/01/03 09:40:48;;;;;;;10.30;2.90;;;;;;;;;;4921301;29;20067;-80
2024/01/03 09:43:19;;;;;;;24.85;2.83;;;;;;;;;;4938446;29;20101;-80
2024/01/03 09:45:51;;;;;;;9.88;2.92;;;;;;;;;;4920489;29;20052;-80
2024/01/03 09:48:22;;;;;;;19.67;2.78;;;;;;;;;;4938259;29;20064;-80
2024/01/03 09:50:53;;;;;;;13.35;3.15;;;;;;;;;;4938161;29;20040;-79
2024/01/03 09:53:24;;;;;;;15.25;3.45;;;;;;;;;;4937963;29;20047;-80
2024/01/03 09:55:54;;;;;;;9.40;2.80;;;;;;;;;;4937842;29;20051;-80
2024/01/03 09:58:25;;;;;;;10.60;3.42;;;;;;;;;;4919748;29;20048;-79
2024/01/03 10:00:55;;;;;;;10.98;3.17;;;;;;;;;;4937590;29;20123;-81
2024/01/03 10:03:25;;;;;;;8.18;2.60;;;;;;;;;;4938305;29;20063;-81
2024/01/03 10:06:10;;;;;;;6.68;3.17;;;;;;;;;;4938070;29;20487;-80
2024/01/03 10:09:02;;;;;;;5.10;2.83;;;;;;;;;;4921126;29;20054;-80
2024/01/03 10:11:33;;;;;;;6.70;3.00;;;;;;;;;;4936814;29;20124;-80
2024/01/03 10:14:22;;;;;;;12.05;2.60;;;;;;;;;;4933861;29;20032;-81
2024/01/03 10:16:52;;;;;;;7.32;2.22;;;;;;;;;;4935464;29;20055;-80
2024/01/03 10:19:26;;;;;;;5.18;2.17;;;;;;;;;;4935633;29;20496;-79
2024/01/03 10:21:59;;;;;;;5.38;2.25;;;;;;;;;;4918469;29;20059;-79
2024/01/03 10:24:31;;;;;;;4.45;2.47;;;;;;;;;;4935153;29;20036;-79
2024/01/03 10:27:10;;;;;;;;;;;;;;;;;;4935636;29;20051;-80
2024/01/03 10:29:40;;;;;;;7.40;2.05;;;;;;;;;;4935355;29;20374;-80
2024/01/03 10:32:15;;;;;;;3.47;1.67;;;;;;;;;;4935059;29;20051;-80
2024/01/03 10:34:46;;;;;;;2.95;1.70;;;;;;;;;;4935002;29;20063;-80
2024/01/03 10:37:16;;;;;;;4.30;1.55;;;;;;;;;;4935035;29;20047;-81
2024/01/03 10:39:49;;;;;;;3.08;1.80;;;;;;;;;;4917788;29;20410;-80
2024/01/03 10:42:22;;;;;;;4.15;1.52;;;;;;;;;;4917783;29;20043;-78
2024/01/03 10:44:54;;;;;;;3.05;1.77;;;;;;;;;;4935443;29;20047;-80
2024/01/03 10:47:24;;;;;;;3.03;1.50;;;;;;;;;;4918212;29;20073;-79
2024/01/03 10:49:54;;;;;;;2.42;1.60;;;;;;;;;;4935242;29;20072;-81
2024/01/03 10:52:30;;;;;;;2.67;1.17;;;;;;;;;;4933219;29;20063;-82
2024/01/03 10:55:09;;;;;;;3.10;1.30;;;;;;;;;;4934973;29;20387;-79
2024/01/03 10:57:44;;;;;;;2.22;1.33;;;;;;;;;;4917653;29;20062;-80
2024/01/03 11:00:43;;;;;;;2.80;1.33;;;;;;;;;;4935211;29;20047;-81
2024/01/03 11:03:58;;;;;;;3.33;1.20;;;;;;;;;;4925675;29;20059;-80
2024/01/03 11:06:40;;;;;;;2.70;1.10;;;;;;;;;;4877091;29;20055;-81
2024/01/03 11:09:10;;;;;;;3.05;1.40;;;;;;;;;;4934501;29;20479;-80
2024/01/03 11:11:40;;;;;;;5.05;2.10;;;;;;;;;;4934241;29;20479;-80
2024/01/03 11:14:18;;;;;;;4.07;1.88;;;;;;;;;;4933788;29;20062;-80
2024/01/03 11:16:49;;;;;;;2.30;1.27;;;;;;;;;;4916711;29;20047;-79
2024/01/03 11:19:30;;;;;;;4.13;1.90;;;;;;;;;;4902237;29;20378;-80
2024/01/03 11:22:05;;;;;;;5.22;1.67;;;;;;;;;;4917973;29;20139;-80
2024/01/03 11:24:46;;;;;;;4.05;1.50;;;;;;;;;;4917395;29;20044;-80
2024/01/03 11:27:21;;;;;;;4.43;1.38;;;;;;;;;;4934536;29;20044;-80
2024/01/03 11:29:55;;;;;;;1.90;1.30;;;;;;;;;;4917506;29;20048;-81
2024/01/03 11:32:32;;;;;;;2.72;1.40;;;;;;;;;;4917626;29;20059;-80
2024/01/03 11:35:08;;;;;;;2.17;1.35;;;;;;;;;;4933958;29;20387;-81
2024/01/03 11:37:40;;;;;;;3.00;1.40;;;;;;;;;;4933795;29;20039;-81
2024/01/03 11:40:19;;;;;;;2.65;1.63;;;;;;;;;;4934114;29;20054;-82
2024/01/03 11:42:55;;;;;;;;;;;;;;;;;;4920010;29;20428;-82
2024/01/03 11:45:26;;;;;;;3.67;1.40;;;;;;;;;;4936023;29;19918;-80
2024/01/03 11:48:02;;;;;;;3.38;1.40;;;;;;;;;;4935961;29;20040;-83
2024/01/03 11:50:33;;;;;;;2.47;1.17;;;;;;;;;;4919098;29;20051;-81
2024/01/03 11:53:09;;;;;;;2.60;1.20;;;;;;;;;;4936038;29;20043;-81
2024/01/03 11:55:51;;;;;;;3.55;1.30;;;;;;;;;;4936070;29;20497;-82
2024/01/03 11:58:21;;;;;;;5.88;2.72;;;;;;;;;;4935799;29;20043;-82
2024/01/03 12:00:52;;;;;;;3.47;0.90;;;;;;;;;;4936146;29;20463;-82
2024/01/03 12:03:28;;;;;;;4.40;1.52;;;;;;;;;;4919015;29;20383;-83
2024/01/03 12:05:59;;;;;;;2.63;1.10;;;;;;;;;;4918947;29;20043;-83
2024/01/03 12:08:29;;;;;;;1.73;1.00;;;;;;;;;;4934072;29;20032;-82
2024/01/03 12:10:59;;;;;;;4.28;1.90;;;;;;;;;;4917392;29;20047;-83
2024/01/03 12:13:31;;;;;;;3.15;0.98;;;;;;;;;;4933482;29;20056;-83
2024/01/03 12:16:01;;;;;;;3.20;1.27;;;;;;;;;;4932604;29;20035;-84
2024/01/03 12:18:32;;;;;;;4.68;1.00;;;;;;;;;;4933345;29;20399;-82
2024/01/03 12:21:12;;;;;;;1.83;1.00;;;;;;;;;;4933886;29;20042;-82
2024/01/03 12:23:57;;;;;;;1.90;1.10;;;;;;;;;;4901299;29;20055;-84
2024/01/03 12:26:29;;;;;;;1.50;1.17;;;;;;;;;;4916073;29;20386;-85
2024/01/03 12:29:03;;;;;;;4.05;1.20;;;;;;;;;;4933400;29;20062;-85
2024/01/03 12:31:34;;;;;;;3.42;1.13;;;;;;;;;;4933785;29;20047;-85
2024/01/03 12:34:21;;;;;;;2.33;1.10;;;;;;;;;;4929988;29;20050;-85
2024/01/03 12:36:52;;;;;;;4.63;0.95;;;;;;;;;;4918183;29;20067;-85
2024/01/03 12:39:22;;;;;;;2.92;1.25;;;;;;;;;;4918780;29;20055;-84
2024/01/03 12:41:53;;;;;;;2.03;0.95;;;;;;;;;;4934039;29;20054;-87
2024/01/03 12:44:25;;;;;;;2.28;0.95;;;;;;;;;;4931981;29;20533;-87
2024/01/03 12:46:55;;;;;;;1.85;0.93;;;;;;;;;;4915674;29;20048;-88
2024/01/03 12:49:26;;;;;;;5.90;1.10;;;;;;;;;;4900104;29;20113;-86
2024/01/03 12:51:57;;;;;;;3.15;1.00;;;;;;;;;;4915504;29;20096;-87
2024/01/03 12:54:28;;;;;;;3.75;1.40;;;;;;;;;;4911517;29;20437;-85
2024/01/03 12:56:58;;;;;;;3.50;0.90;;;;;;;;;;4918717;29;20047;-86
2024/01/03 12:59:29;;;;;;;3.10;0.90;;;;;;;;;;4918090;29;20055;-86
2024/01/03 13:01:59;;;;;;;4.97;1.85;;;;;;;;;;4918021;29;20047;-86
2024/01/03 13:04:32;;;;;;;3.85;0.90;;;;;;;;;;4919167;29;20075;-86
2024/01/03 13:07:03;;;;;;;3.00;1.35;;;;;;;;;;4935032;29;20055;-84
2024/01/03 13:09:33;;;;;;;1.60;1.10;;;;;;;;;;4919945;29;20063;-85
2024/01/03 13:12:04;;;;;;;2.85;1.20;;;;;;;;;;4919773;29;20058;-86
2024/01/03 13:14:35;;;;;;;4.57;1.00;;;;;;;;;;4918253;29;20051;-85
2024/01/03 13:17:06;;;;;;;5.28;1.17;;;;;;;;;;4918580;29;20475;-85
2024/01/03 13:19:36;;;;;;;2.65;0.80;;;;;;;;;;4918190;29;20052;-84
2024/01/03 13:22:06;;;;;;;8.52;4.20;;;;;;;;;;4904235;29;20063;-85
2024/01/03 13:24:39;;;;;;;4.13;1.10;;;;;;;;;;4918670;29;20055;-86
2024/01/03 13:27:09;;;;;;;3.67;1.20;;;;;;;;;;4936084;29;20052;-86
2024/01/03 13:29:40;;;;;;;1.70;0.90;;;;;;;;;;4936265;29;20043;-86
2024/01/03 13:32:11;;;;;;;3.72;0.95;;;;;;;;;;4918991;29;20063;-86
2024/01/03 13:34:41;;;;;;;2.25;1.00;;;;;;;;;;4937937;28;20442;-85
2024/01/03 13:37:30;;;;;;;4.43;1.10;;;;;;;;;;4935759;29;20360;-85
2024/01/03 13:40:01;;;;;;;3.08;1.52;;;;;;;;;;4919686;29;20051;-86
2024/01/03 13:42:31;;;;;;;4.38;1.17;;;;;;;;;;4936329;29;20052;-84
2024/01/03 13:45:01;;;;;;;4.53;0.95;;;;;;;;;;4943186;28;20043;-82
2024/01/03 13:47:31;;;;;;;3.30;1.70;;;;;;;;;;4902783;29;20052;-83
2024/01/03 13:50:02;;;;;;;3.17;1.20;;;;;;;;;;4936017;29;20043;-83
2024/01/03 13:52:33;;;;;;;4.00;0.95;;;;;;;;;;4919226;29;20058;-86
2024/01/03 13:55:03;;;;;;;;;;;;;;;;;;4936533;29;20044;-85
2024/01/03 13:57:36;;;;;;;3.15;1.63;;;;;;;;;;4935435;29;20259;-82
2024/01/03 14:00:09;;;;;;;2.17;1.23;;;;;;;;;;4919275;29;20048;-81
2024/01/03 14:02:42;;;;;;;2.45;1.00;;;;;;;;;;4918864;29;20059;-83
2024/01/03 14:05:15;;;;;;;2.15;1.08;;;;;;;;;;4903871;29;20386;-83
2024/01/03 14:07:45;;;;;;;2.38;1.00;;;;;;;;;;4917850;29;20048;-82
2024/01/03 14:10:15;;;;;;;3.38;1.58;;;;;;;;;;4916660;29;20051;-83
2024/01/03 14:12:45;;;;;;;3.40;1.25;;;;;;;;;;4899703;29;20055;-86
2024/01/03 14:15:16;;;;;;;5.20;1.10;;;;;;;;;;4901548;29;20048;-86
2024/01/03 14:17:47;;;;;;;3.50;1.10;;;;;;;;;;4932021;29;20051;-85
2024/01/03 14:20:18;;;;;;;2.60;1.20;;;;;;;;;;4918841;29;20048;-86
2024/01/03 14:22:48;;;;;;;3.17;0.90;;;;;;;;;;4901414;29;20058;-88
2024/01/03 14:25:21;;;;;;;3.28;1.10;;;;;;;;;;4916681;29;20055;-88
2024/01/03 14:27:53;;;;;;;3.33;0.90;;;;;;;;;;4900472;29;20044;-87
2024/01/03 14:30:27;;;;;;;2.47;1.00;;;;;;;;;;4916225;29;20356;-87
2024/01/03 14:32:58;;;;;;;2.10;0.95;;;;;;;;;;4901006;29;20048;-85
2024/01/03 14:35:28;;;;;;;3.70;1.10;;;;;;;;;;4915500;29;20063;-84
2024/01/03 14:37:59;;;;;;;2.88;1.00;;;;;;;;;;4916327;29;20427;-84
2024/01/03 14:40:30;;;;;;;3.78;1.23;;;;;;;;;;4902025;29;20039;-85
2024/01/03 14:43:03;;;;;;;3.63;1.08;;;;;;;;;;4901132;29;20048;-86
2024/01/03 14:45:35;;;;;;;3.55;1.33;;;;;;;;;;4902393;29;20044;-86
2024/01/03 14:48:06;;;;;;;3.90;1.10;;;;;;;;;;4892143;29;20048;-88
2024/01/03 14:50:37;;;;;;;3.83;0.93;;;;;;;;;;4902440;29;20054;-87
2024/01/03 14:53:08;;;;;;;3.33;1.02;;;;;;;;;;4918435;29;20487;-87
2024/01/03 14:58:43;;;;;;;1.85;0.90;;;;;;;;;;5129547;23;20078;-88
2024/01/03 15:01:16;;;;;;;4.63;1.55;;;;;;;;;;4921337;29;20394;-87
2024/01/03 15:09:49;;;;;;;2.92;1.00;;;;;;;;;;4986607;23;20066;-87
2024/01/03 15:12:37;;;;;;;1.60;0.95;;;;;;;;;;4971417;28;20077;-86
2024/01/03 15:15:08;;;;;;;2.65;0.90;;;;;;;;;;4964159;28;20054;-87